createdAt,value
2024-03-01T00:05:41.177Z,63.00
2024-03-01T00:15:43.275Z,63.10
2024-03-01T00:25:45.948Z,63.00
2024-03-01T00:35:48.763Z,63.40
2024-03-01T00:45:50.836Z,64.00
2024-03-01T00:55:52.821Z,64.10
2024-03-01T01:05:54.814Z,63.80
2024-03-01T01:15:56.816Z,63.60
2024-03-01T01:25:59.060Z,63.60
2024-03-01T01:36:01.094Z,63.50
2024-03-01T01:46:03.191Z,63.40
2024-03-01T01:56:06.775Z,63.50
2024-03-01T02:06:08.953Z,63.60
2024-03-01T02:16:11.038Z,63.80
2024-03-01T02:26:14.385Z,63.80
2024-03-01T02:36:18.866Z,63.80
2024-03-01T02:46:23.520Z,64.00
2024-03-01T02:56:25.537Z,63.80
2024-03-01T03:06:27.636Z,63.90
2024-03-01T03:16:29.815Z,64.00
2024-03-01T03:26:31.869Z,63.90
2024-03-01T03:36:33.812Z,64.00
2024-03-01T03:46:36.561Z,64.00
2024-03-01T03:56:38.532Z,63.80
2024-03-01T04:06:40.641Z,64.10
2024-03-01T04:16:42.838Z,64.40
2024-03-01T04:26:44.968Z,64.30
2024-03-01T04:36:46.959Z,64.40
2024-03-01T04:46:49.004Z,64.20
2024-03-01T04:56:51.023Z,64.20
2024-03-01T05:06:53.050Z,64.40
2024-03-01T05:16:55.105Z,64.40
2024-03-01T05:26:59.055Z,64.30
2024-03-01T05:37:01.063Z,64.20
2024-03-01T05:47:03.203Z,64.30
2024-03-01T05:57:05.466Z,64.40
2024-03-01T06:07:07.474Z,64.50
2024-03-01T06:17:09.471Z,64.70
2024-03-01T06:27:11.424Z,64.80
2024-03-01T06:37:13.457Z,64.80
2024-03-01T06:47:19.606Z,64.90
2024-03-01T06:57:22.300Z,65.00
2024-03-01T07:07:24.334Z,66.10
2024-03-01T07:17:26.330Z,65.40
2024-03-01T07:27:28.827Z,65.20
2024-03-01T07:37:31.601Z,65.30
2024-03-01T07:47:34.883Z,66.40
2024-03-01T07:57:37.054Z,65.90
2024-03-01T08:07:39.261Z,66.60
2024-03-01T08:17:41.334Z,66.70
2024-03-01T08:27:43.318Z,66.80
2024-03-01T08:37:46.123Z,66.90
2024-03-01T08:48:02.136Z,66.90
2024-03-01T08:58:04.381Z,67.50
2024-03-01T09:08:10.058Z,67.00
2024-03-01T09:18:26.939Z,67.00
2024-03-01T09:28:29.911Z,67.00
2024-03-01T09:38:31.927Z,66.20
2024-03-01T09:48:58.701Z,66.10
2024-03-01T09:59:25.750Z,66.40
2024-03-01T10:10:23.710Z,66.50
2024-03-01T10:21:07.857Z,66.70
2024-03-01T10:31:43.045Z,66.20
2024-03-01T10:42:15.767Z,65.80
2024-03-01T10:52:20.941Z,65.90
2024-03-01T11:02:30.735Z,66.40
2024-03-01T11:13:00.887Z,66.60
2024-03-01T11:23:30.012Z,66.00
2024-03-01T11:33:35.432Z,65.90
2024-03-01T11:44:19.393Z,65.30
2024-03-01T11:55:03.128Z,64.80
2024-03-01T12:05:25.417Z,64.90
2024-03-01T12:16:00.446Z,64.60
2024-03-01T12:26:04.552Z,63.90
2024-03-01T12:36:39.374Z,63.70
2024-03-01T12:47:09.557Z,63.50
2024-03-01T12:57:37.275Z,63.40
2024-03-01T13:07:42.248Z,63.60
2024-03-01T13:18:13.735Z,63.80
2024-03-01T13:28:24.168Z,63.50
2024-03-01T13:38:36.589Z,63.70
2024-03-01T13:48:41.004Z,63.50
2024-03-01T13:58:43.038Z,63.60
2024-03-01T14:08:45.048Z,63.60
2024-03-01T14:18:47.483Z,63.60
2024-03-01T14:28:50.485Z,63.80
2024-03-01T14:38:57.044Z,63.90
2024-03-01T14:49:18.940Z,63.90
2024-03-01T14:59:22.009Z,64.10
2024-03-01T15:09:24.461Z,63.90
2024-03-01T15:19:26.739Z,63.90
2024-03-01T15:29:29.320Z,63.90
2024-03-01T15:39:31.368Z,63.80
2024-03-01T15:49:33.377Z,63.90
2024-03-01T15:59:35.405Z,63.90
2024-03-01T16:09:39.205Z,63.90
2024-03-01T16:19:42.675Z,63.90
2024-03-01T16:29:44.689Z,64.00
2024-03-01T16:39:46.740Z,64.20
2024-03-01T16:49:48.794Z,64.10
2024-03-01T16:59:51.464Z,63.90
2024-03-01T17:09:53.929Z,63.80
2024-03-01T17:19:55.968Z,63.90
2024-03-01T17:29:57.944Z,64.00
2024-03-01T17:39:59.973Z,64.10
2024-03-01T17:50:02.168Z,64.10
2024-03-01T18:00:06.601Z,64.20
2024-03-01T18:10:09.841Z,64.30
2024-03-01T18:20:11.992Z,64.40
2024-03-01T18:30:14.596Z,64.60
2024-03-01T18:40:16.778Z,64.60
2024-03-01T18:50:18.894Z,64.70
2024-03-01T19:00:24.110Z,64.80
2024-03-01T19:10:26.223Z,65.00
2024-03-01T19:20:28.337Z,64.90
2024-03-01T19:30:31.397Z,64.90
2024-03-01T19:40:33.438Z,64.90
2024-03-01T19:50:35.558Z,65.00
2024-03-01T20:00:39.201Z,64.90
2024-03-01T20:10:41.373Z,65.00
2024-03-01T20:20:43.503Z,65.00
2024-03-01T20:30:45.699Z,64.90
2024-03-01T20:40:49.559Z,65.00
2024-03-01T20:50:52.835Z,65.00
2024-03-01T21:00:54.825Z,65.00
2024-03-01T21:10:56.923Z,65.00
2024-03-01T21:20:59.048Z,65.10
2024-03-01T21:31:01.046Z,65.20
2024-03-01T21:41:03.056Z,65.40
2024-03-01T21:51:05.121Z,65.50
2024-03-01T22:01:07.335Z,65.70
2024-03-01T22:11:09.399Z,65.80
2024-03-01T22:21:11.450Z,65.90
2024-03-01T22:31:14.086Z,66.10
2024-03-01T22:41:16.204Z,66.30
2024-03-01T22:51:18.430Z,66.30
2024-03-01T23:01:26.851Z,66.20
2024-03-01T23:11:42.814Z,66.40
2024-03-01T23:21:44.874Z,66.50
2024-03-01T23:31:46.887Z,66.20
2024-03-01T23:41:48.906Z,66.40
2024-03-01T23:51:50.977Z,66.50
